createdAt,value
2023-08-19T00:01:17.991Z,19.71
2023-08-19T00:03:45.360Z,19.76
2023-08-19T00:06:31.525Z,19.83
2023-08-19T00:08:59.369Z,19.76
2023-08-19T00:11:26.338Z,19.74
2023-08-19T00:13:52.974Z,19.69
2023-08-19T00:16:19.870Z,19.67
2023-08-19T00:18:46.537Z,19.72
2023-08-19T00:21:13.120Z,19.71
2023-08-19T00:23:39.724Z,19.54
2023-08-19T00:26:06.530Z,19.55
2023-08-19T00:28:33.164Z,19.43
2023-08-19T00:31:00.131Z,19.38
2023-08-19T00:33:26.807Z,19.40
2023-08-19T00:35:53.596Z,19.30
2023-08-19T00:38:20.375Z,19.40
2023-08-19T00:40:47.693Z,19.48
2023-08-19T00:43:14.307Z,19.45
2023-08-19T00:45:46.125Z,19.43
2023-08-19T00:48:17.714Z,19.37
2023-08-19T00:50:45.737Z,19.31
2023-08-19T00:53:13.892Z,19.23
2023-08-19T00:55:43.633Z,19.24
2023-08-19T00:58:10.724Z,19.31
2023-08-19T01:00:37.688Z,19.14
2023-08-19T01:03:07.970Z,18.97
2023-08-19T01:05:53.845Z,18.94
2023-08-19T01:08:30.878Z,18.96
2023-08-19T01:11:34.599Z,19.06
2023-08-19T01:14:24.788Z,18.93
2023-08-19T01:16:54.544Z,18.81
2023-08-19T01:19:30.079Z,18.87
2023-08-19T01:22:03.228Z,18.72
2023-08-19T01:24:39.495Z,18.64
2023-08-19T01:27:08.310Z,18.67
2023-08-19T01:29:35.106Z,18.60
2023-08-19T01:32:05.199Z,18.59
2023-08-19T01:34:31.837Z,18.56
2023-08-19T01:37:08.589Z,18.51
2023-08-19T01:39:38.176Z,18.54
2023-08-19T01:42:05.794Z,18.49
2023-08-19T01:44:32.675Z,18.52
2023-08-19T01:47:13.399Z,18.57
2023-08-19T01:49:40.187Z,18.49
2023-08-19T01:52:06.836Z,18.45
2023-08-19T01:54:33.744Z,18.58
2023-08-19T01:57:00.379Z,18.44
2023-08-19T01:59:27.211Z,18.50
2023-08-19T02:01:54.108Z,18.48
2023-08-19T02:04:20.702Z,18.51
2023-08-19T02:06:47.630Z,18.39
2023-08-19T02:09:14.277Z,18.45
2023-08-19T02:11:41.160Z,18.45
2023-08-19T02:14:08.988Z,18.37
2023-08-19T02:16:35.614Z,18.43
2023-08-19T02:19:02.411Z,18.27
2023-08-19T02:21:29.010Z,18.28
2023-08-19T02:23:58.556Z,18.18
2023-08-19T02:26:25.173Z,18.15
2023-08-19T02:28:51.994Z,18.02
2023-08-19T02:31:18.607Z,18.02
2023-08-19T02:33:45.266Z,17.98
2023-08-19T02:36:13.498Z,17.95
2023-08-19T02:38:40.102Z,18.05
2023-08-19T02:41:06.718Z,18.00
2023-08-19T02:43:33.351Z,18.00
2023-08-19T02:46:00.060Z,17.99
2023-08-19T02:48:26.824Z,17.95
2023-08-19T02:50:55.063Z,17.94
2023-08-19T02:53:22.956Z,17.89
2023-08-19T02:55:55.491Z,17.89
2023-08-19T02:58:22.502Z,17.75
2023-08-19T03:00:56.458Z,17.83
2023-08-19T03:03:23.237Z,17.82
2023-08-19T03:05:49.923Z,17.74
2023-08-19T03:08:16.792Z,17.71
2023-08-19T03:10:43.730Z,17.59
2023-08-19T03:13:10.986Z,17.54
2023-08-19T03:15:38.961Z,17.63
2023-08-19T03:18:06.761Z,17.63
2023-08-19T03:20:36.585Z,17.46
2023-08-19T03:23:03.965Z,17.55
2023-08-19T03:25:30.545Z,17.42
2023-08-19T03:27:57.256Z,17.60
2023-08-19T03:30:23.974Z,17.65
2023-08-19T03:32:51.032Z,17.52
2023-08-19T03:35:17.693Z,17.61
2023-08-19T03:37:44.707Z,17.50
2023-08-19T03:40:11.644Z,17.31
2023-08-19T03:42:38.591Z,17.41
2023-08-19T03:45:05.809Z,17.49
2023-08-19T03:47:32.689Z,17.41
2023-08-19T03:49:59.553Z,17.28
2023-08-19T03:52:26.989Z,17.27
2023-08-19T03:54:53.669Z,17.31
2023-08-19T03:57:20.303Z,17.29
2023-08-19T03:59:50.815Z,17.36
2023-08-19T04:02:17.613Z,17.33
2023-08-19T04:05:00.812Z,17.40
2023-08-19T04:07:28.011Z,17.37
2023-08-19T04:09:56.438Z,17.36
2023-08-19T04:12:24.128Z,17.31
2023-08-19T04:14:51.330Z,17.34
2023-08-19T04:17:18.277Z,17.28
2023-08-19T04:19:44.951Z,17.22
2023-08-19T04:22:13.894Z,17.38
2023-08-19T04:24:40.880Z,17.34
2023-08-19T04:27:07.955Z,17.37
2023-08-19T04:29:34.667Z,17.41
2023-08-19T04:32:02.773Z,17.30
2023-08-19T04:34:32.874Z,17.34
2023-08-19T04:36:59.682Z,17.34
2023-08-19T04:39:26.543Z,17.49
2023-08-19T04:41:54.531Z,17.45
2023-08-19T04:44:21.148Z,17.48
2023-08-19T04:46:47.912Z,17.48
2023-08-19T04:49:14.514Z,17.50
2023-08-19T04:51:41.190Z,17.60
2023-08-19T04:54:07.982Z,17.58
2023-08-19T04:56:34.671Z,17.55
2023-08-19T04:59:01.718Z,17.58
2023-08-19T05:01:28.923Z,17.65
2023-08-19T05:03:56.096Z,17.74
2023-08-19T05:06:23.373Z,17.75
2023-08-19T05:08:50.319Z,17.78
2023-08-19T05:11:16.968Z,17.83
2023-08-19T05:13:46.309Z,17.92
2023-08-19T05:16:14.225Z,17.97
2023-08-19T05:18:40.934Z,18.00
2023-08-19T05:21:07.618Z,18.16
2023-08-19T05:23:34.244Z,18.27
2023-08-19T05:26:01.034Z,18.23
2023-08-19T05:28:28.303Z,18.30
2023-08-19T05:30:55.017Z,18.53
2023-08-19T05:33:21.956Z,18.65
2023-08-19T05:35:48.794Z,18.71
2023-08-19T05:38:15.649Z,18.79
2023-08-19T05:40:42.361Z,18.92
2023-08-19T05:43:09.056Z,18.95
2023-08-19T05:45:35.766Z,19.15
2023-08-19T05:48:02.447Z,19.33
2023-08-19T05:50:29.306Z,19.47
2023-08-19T05:52:55.947Z,19.61
2023-08-19T05:55:22.821Z,19.77
2023-08-19T05:57:49.448Z,19.87
2023-08-19T06:00:16.344Z,19.96
2023-08-19T06:02:44.164Z,20.13
2023-08-19T06:05:11.067Z,20.15
2023-08-19T06:07:38.825Z,20.31
2023-08-19T06:10:06.428Z,20.44
2023-08-19T06:12:33.105Z,20.48
2023-08-19T06:14:59.706Z,20.62
2023-08-19T06:17:26.386Z,20.75
2023-08-19T06:19:53.091Z,20.85
2023-08-19T06:22:19.914Z,20.98
2023-08-19T06:24:46.508Z,21.01
2023-08-19T06:27:13.212Z,21.13
2023-08-19T06:29:40.978Z,21.27
2023-08-19T06:32:08.176Z,21.40
2023-08-19T06:34:35.198Z,21.48
2023-08-19T06:37:04.456Z,21.51
2023-08-19T06:39:34.148Z,21.61
2023-08-19T06:42:03.458Z,21.78
2023-08-19T06:44:32.261Z,22.07
2023-08-19T06:47:00.870Z,22.20
2023-08-19T06:49:28.020Z,22.31
2023-08-19T06:51:55.052Z,22.50
2023-08-19T06:54:22.031Z,22.75
2023-08-19T06:57:00.187Z,22.84
2023-08-19T06:59:34.362Z,23.03
2023-08-19T07:02:04.024Z,23.03
2023-08-19T07:04:31.325Z,23.26
2023-08-19T07:07:00.442Z,23.43
2023-08-19T07:09:27.822Z,23.23
2023-08-19T07:11:56.397Z,23.49
2023-08-19T07:14:27.124Z,23.73
2023-08-19T07:16:56.546Z,23.76
2023-08-19T07:19:28.551Z,23.94
2023-08-19T07:21:57.005Z,23.66
2023-08-19T07:24:24.423Z,23.98
2023-08-19T07:26:51.664Z,24.04
2023-08-19T07:29:18.830Z,24.24
2023-08-19T07:31:48.481Z,24.40
2023-08-19T07:34:15.101Z,24.54
2023-08-19T07:36:43.402Z,24.69
2023-08-19T07:39:10.170Z,24.67
2023-08-19T07:41:36.960Z,24.77
2023-08-19T07:44:03.777Z,24.83
2023-08-19T07:46:31.283Z,24.85
2023-08-19T07:48:57.905Z,25.17
2023-08-19T07:51:24.919Z,25.25
2023-08-19T07:53:51.664Z,25.10
2023-08-19T07:56:18.649Z,25.29
2023-08-19T07:58:46.063Z,25.28
2023-08-19T08:01:12.783Z,25.43
2023-08-19T08:03:40.830Z,25.40
2023-08-19T08:06:07.466Z,25.50
2023-08-19T08:08:34.060Z,25.56
2023-08-19T08:11:01.121Z,25.56
2023-08-19T08:13:27.753Z,25.93
2023-08-19T08:15:54.731Z,26.08
2023-08-19T08:18:21.531Z,25.84
2023-08-19T08:20:48.172Z,26.29
2023-08-19T08:23:15.032Z,26.06
2023-08-19T08:25:42.189Z,26.33
2023-08-19T08:28:08.796Z,26.51
2023-08-19T08:30:35.472Z,26.70
2023-08-19T08:33:04.226Z,26.75
2023-08-19T08:35:31.512Z,26.27
2023-08-19T08:37:58.197Z,26.78
2023-08-19T08:40:24.866Z,26.79
2023-08-19T08:42:52.547Z,26.98
2023-08-19T08:45:21.320Z,27.22
2023-08-19T08:47:48.894Z,27.22
2023-08-19T08:50:16.366Z,27.43
2023-08-19T08:52:43.392Z,27.33
2023-08-19T08:55:12.102Z,27.13
2023-08-19T08:57:38.764Z,27.46
2023-08-19T09:00:07.470Z,27.28
2023-08-19T09:02:35.538Z,27.43
2023-08-19T09:05:07.373Z,27.48
2023-08-19T09:07:40.213Z,27.65
2023-08-19T09:10:17.588Z,27.73
2023-08-19T09:12:46.940Z,28.03
2023-08-19T09:15:15.457Z,28.09
2023-08-19T09:17:43.369Z,28.13
2023-08-19T09:20:10.520Z,28.16
2023-08-19T09:22:39.536Z,28.48
2023-08-19T09:25:15.508Z,28.49
2023-08-19T09:27:43.185Z,28.42
2023-08-19T09:30:14.935Z,28.61
2023-08-19T09:32:42.705Z,28.75
2023-08-19T09:35:12.980Z,28.68
2023-08-19T09:37:41.524Z,28.82
2023-08-19T09:40:19.514Z,28.78
2023-08-19T09:42:50.387Z,28.75
2023-08-19T09:45:19.520Z,28.79
2023-08-19T09:47:48.620Z,29.19
2023-08-19T09:50:16.679Z,29.10
2023-08-19T09:52:54.163Z,29.00
2023-08-19T09:55:31.805Z,29.22
2023-08-19T09:57:59.211Z,29.26
2023-08-19T10:00:25.836Z,29.12
2023-08-19T10:02:52.806Z,29.18
2023-08-19T10:05:20.301Z,29.18
2023-08-19T10:07:54.737Z,29.51
2023-08-19T10:10:22.503Z,29.60
2023-08-19T10:12:52.512Z,29.56
2023-08-19T10:15:21.338Z,29.67
2023-08-19T10:17:52.664Z,29.90
2023-08-19T10:20:23.630Z,29.99
2023-08-19T10:22:55.198Z,29.94
2023-08-19T10:25:22.901Z,30.07
2023-08-19T10:27:49.837Z,29.94
2023-08-19T10:30:25.786Z,30.03
2023-08-19T10:32:52.722Z,30.14
2023-08-19T10:35:19.602Z,30.21
2023-08-19T10:37:52.607Z,30.27
2023-08-19T10:40:22.739Z,30.56
2023-08-19T10:42:58.368Z,30.50
2023-08-19T10:45:31.817Z,30.71
2023-08-19T10:47:59.805Z,30.53
2023-08-19T10:50:26.964Z,30.83
2023-08-19T10:53:04.945Z,30.73
2023-08-19T10:56:12.741Z,30.81
2023-08-19T10:58:41.062Z,30.94
2023-08-19T11:01:07.722Z,30.88
2023-08-19T11:03:34.332Z,30.71
2023-08-19T11:06:06.911Z,30.74
2023-08-19T11:08:44.829Z,30.74
2023-08-19T11:11:18.171Z,30.88
2023-08-19T11:13:45.270Z,31.05
2023-08-19T11:16:11.885Z,31.21
2023-08-19T11:18:42.430Z,31.45
2023-08-19T11:21:09.165Z,31.55
2023-08-19T11:23:35.778Z,31.33
2023-08-19T11:26:03.224Z,31.32
2023-08-19T11:28:30.538Z,31.38
2023-08-19T11:30:57.389Z,31.57
2023-08-19T11:33:27.783Z,31.81
2023-08-19T11:35:54.656Z,32.30
2023-08-19T11:38:21.333Z,33.07
2023-08-19T11:40:53.028Z,32.83
2023-08-19T11:43:25.877Z,32.72
2023-08-19T11:45:53.926Z,32.66
2023-08-19T11:48:20.725Z,32.74
2023-08-19T11:50:51.860Z,32.99
2023-08-19T11:53:23.669Z,33.35
2023-08-19T11:55:54.092Z,33.77
2023-08-19T11:58:21.522Z,33.12
2023-08-19T12:00:48.265Z,34.60
2023-08-19T12:03:18.136Z,33.97
2023-08-19T12:05:45.855Z,34.49
2023-08-19T12:08:32.945Z,34.61
2023-08-19T12:11:00.156Z,34.73
2023-08-19T12:13:33.135Z,34.83
2023-08-19T12:16:01.373Z,34.54
2023-08-19T12:18:32.953Z,34.68
2023-08-19T12:21:00.944Z,35.51
2023-08-19T12:23:27.951Z,35.83
2023-08-19T12:25:56.938Z,35.49
2023-08-19T12:28:24.631Z,35.56
2023-08-19T12:30:54.107Z,35.85
2023-08-19T12:33:22.101Z,35.86
2023-08-19T12:35:59.382Z,35.37
2023-08-19T12:38:32.889Z,36.36
2023-08-19T12:40:59.547Z,35.90
2023-08-19T12:43:26.154Z,34.84
2023-08-19T12:45:53.352Z,34.94
2023-08-19T12:48:19.967Z,35.51
2023-08-19T12:50:46.747Z,35.51
2023-08-19T12:53:13.356Z,35.74
2023-08-19T12:55:40.037Z,35.39
2023-08-19T12:58:06.737Z,35.10
2023-08-19T13:00:33.634Z,35.61
2023-08-19T13:03:00.336Z,35.13
2023-08-19T13:05:27.084Z,35.37
2023-08-19T13:07:56.569Z,34.62
2023-08-19T13:10:23.235Z,34.96
2023-08-19T13:12:53.227Z,34.97
2023-08-19T13:15:20.356Z,35.21
2023-08-19T13:17:47.148Z,34.80
2023-08-19T13:20:16.098Z,34.73
2023-08-19T13:22:43.070Z,34.27
2023-08-19T13:25:09.974Z,34.21
2023-08-19T13:27:36.622Z,34.24
2023-08-19T13:30:07.043Z,34.06
2023-08-19T13:32:34.351Z,34.16
2023-08-19T13:35:01.164Z,33.81
2023-08-19T13:37:27.778Z,33.92
2023-08-19T13:39:54.398Z,34.22
2023-08-19T13:42:21.430Z,33.81
2023-08-19T13:44:48.054Z,33.68
2023-08-19T13:47:14.716Z,33.31
2023-08-19T13:49:41.566Z,33.89
2023-08-19T13:52:35.205Z,33.41
2023-08-19T13:55:01.768Z,33.65
2023-08-19T13:57:28.569Z,33.55
2023-08-19T13:59:55.303Z,33.66
2023-08-19T14:02:22.104Z,33.59
2023-08-19T14:04:48.716Z,33.57
2023-08-19T14:07:15.302Z,33.39
2023-08-19T14:09:42.002Z,33.48
2023-08-19T14:12:08.836Z,33.54
2023-08-19T14:14:36.125Z,33.44
2023-08-19T14:17:04.391Z,33.57
2023-08-19T14:19:31.238Z,33.89
2023-08-19T14:21:57.794Z,33.44
2023-08-19T14:24:24.485Z,33.69
2023-08-19T14:26:52.671Z,33.61
2023-08-19T14:29:19.563Z,33.61
2023-08-19T14:31:46.270Z,33.34
2023-08-19T14:34:13.140Z,33.36
2023-08-19T14:36:39.733Z,33.20
2023-08-19T14:39:06.367Z,33.37
2023-08-19T14:41:33.101Z,33.44
2023-08-19T14:43:59.886Z,33.57
2023-08-19T14:46:26.674Z,33.60
2023-08-19T14:48:53.387Z,33.35
2023-08-19T14:51:21.354Z,33.18
2023-08-19T14:53:48.151Z,33.23
2023-08-19T14:56:15.146Z,33.54
2023-08-19T14:58:41.719Z,33.34
2023-08-19T15:01:08.476Z,33.04
2023-08-19T15:03:35.268Z,33.03
2023-08-19T15:06:03.712Z,33.07
2023-08-19T15:08:31.747Z,33.14
2023-08-19T15:10:58.387Z,33.26
2023-08-19T15:13:24.979Z,33.30
2023-08-19T15:15:51.685Z,33.37
2023-08-19T15:18:18.379Z,33.36
2023-08-19T15:20:46.693Z,33.21
2023-08-19T15:23:16.433Z,33.52
2023-08-19T15:25:43.003Z,33.51
2023-08-19T15:28:09.690Z,33.29
2023-08-19T15:30:36.270Z,33.18
2023-08-19T15:33:03.001Z,33.49
2023-08-19T15:35:29.629Z,33.43
2023-08-19T15:37:56.472Z,33.26
2023-08-19T15:40:23.099Z,33.22
2023-08-19T15:42:49.711Z,33.21
2023-08-19T15:45:16.607Z,33.13
2023-08-19T15:47:43.991Z,33.21
2023-08-19T15:50:11.170Z,33.05
2023-08-19T15:52:38.784Z,33.03
2023-08-19T15:55:05.807Z,32.84
2023-08-19T15:57:32.940Z,32.84
2023-08-19T15:59:59.892Z,32.79
2023-08-19T16:02:26.660Z,32.98
2023-08-19T16:04:53.730Z,33.13
2023-08-19T16:07:21.725Z,33.15
2023-08-19T16:09:48.348Z,32.89
2023-08-19T16:12:15.295Z,32.77
2023-08-19T16:14:41.972Z,32.76
2023-08-19T16:17:08.678Z,32.86
2023-08-19T16:19:35.466Z,32.90
2023-08-19T16:22:02.115Z,32.61
2023-08-19T16:24:28.726Z,32.80
2023-08-19T16:26:57.043Z,32.91
2023-08-19T16:29:23.737Z,32.72
2023-08-19T16:31:51.807Z,32.73
2023-08-19T16:34:18.569Z,32.66
2023-08-19T16:36:45.337Z,32.59
2023-08-19T16:39:12.215Z,32.58
2023-08-19T16:41:38.852Z,32.48
2023-08-19T16:44:05.963Z,32.42
2023-08-19T16:46:32.621Z,32.36
2023-08-19T16:49:00.039Z,32.30
2023-08-19T16:51:26.681Z,32.16
2023-08-19T16:53:53.665Z,32.24
2023-08-19T16:56:21.790Z,32.13
2023-08-19T16:58:48.406Z,32.05
2023-08-19T17:01:15.284Z,31.99
2023-08-19T17:03:42.287Z,31.92
2023-08-19T17:06:09.011Z,31.96
2023-08-19T17:08:35.762Z,32.01
2023-08-19T17:11:02.701Z,31.88
2023-08-19T17:13:29.761Z,31.86
2023-08-19T17:15:58.060Z,31.88
2023-08-19T17:18:26.302Z,31.83
2023-08-19T17:20:54.250Z,31.71
2023-08-19T17:23:21.473Z,31.57
2023-08-19T17:25:48.115Z,31.37
2023-08-19T17:28:14.929Z,31.33
2023-08-19T17:30:41.842Z,31.31
2023-08-19T17:33:08.744Z,31.16
2023-08-19T17:35:36.874Z,31.03
2023-08-19T17:38:05.373Z,30.77
2023-08-19T17:40:33.380Z,30.56
2023-08-19T17:43:00.031Z,30.42
2023-08-19T17:45:27.182Z,30.22
2023-08-19T17:47:55.427Z,29.94
2023-08-19T17:50:22.490Z,29.81
2023-08-19T17:52:49.315Z,29.60
2023-08-19T17:55:16.551Z,29.44
2023-08-19T17:57:44.575Z,29.29
2023-08-19T18:00:11.799Z,29.12
2023-08-19T18:02:38.812Z,28.98
2023-08-19T18:05:05.724Z,28.85
2023-08-19T18:07:33.162Z,28.70
2023-08-19T18:10:01.579Z,28.56
2023-08-19T18:12:28.427Z,28.43
2023-08-19T18:14:55.017Z,28.26
2023-08-19T18:17:21.683Z,28.16
2023-08-19T18:19:48.665Z,28.05
2023-08-19T18:22:15.614Z,27.94
2023-08-19T18:24:44.257Z,27.88
2023-08-19T18:27:11.003Z,27.80
2023-08-19T18:29:39.862Z,27.65
2023-08-19T18:32:07.543Z,27.57
2023-08-19T18:34:34.643Z,27.41
2023-08-19T18:37:03.131Z,27.40
2023-08-19T18:39:29.723Z,27.26
2023-08-19T18:41:56.441Z,27.15
2023-08-19T18:44:23.503Z,27.08
2023-08-19T18:46:50.130Z,26.96
2023-08-19T18:49:16.757Z,26.88
2023-08-19T18:51:44.526Z,26.79
2023-08-19T18:54:11.325Z,26.76
2023-08-19T18:56:37.994Z,26.63
2023-08-19T18:59:04.729Z,26.64
2023-08-19T19:01:31.912Z,26.53
2023-08-19T19:03:59.507Z,26.49
2023-08-19T19:06:26.286Z,26.37
2023-08-19T19:08:53.271Z,26.37
2023-08-19T19:11:19.951Z,26.26
2023-08-19T19:13:46.558Z,26.23
2023-08-19T19:16:15.123Z,26.09
2023-08-19T19:18:41.840Z,26.04
2023-08-19T19:21:08.553Z,25.99
2023-08-19T19:23:35.205Z,26.00
2023-08-19T19:26:03.646Z,25.76
2023-08-19T19:28:31.107Z,25.95
2023-08-19T19:30:57.871Z,25.79
2023-08-19T19:33:25.677Z,25.74
2023-08-19T19:35:52.385Z,25.74
2023-08-19T19:38:19.343Z,25.78
2023-08-19T19:40:46.240Z,25.62
2023-08-19T19:43:13.238Z,25.59
2023-08-19T19:45:40.387Z,25.58
2023-08-19T19:48:07.367Z,25.51
2023-08-19T19:50:35.246Z,25.41
2023-08-19T19:53:02.074Z,25.45
2023-08-19T19:55:28.817Z,25.43
2023-08-19T19:57:55.533Z,25.27
2023-08-19T20:00:22.185Z,25.25
2023-08-19T20:02:48.932Z,25.16
2023-08-19T20:05:15.657Z,25.00
2023-08-19T20:07:42.483Z,24.94
2023-08-19T20:10:25.251Z,25.00
2023-08-19T20:12:54.336Z,24.83
2023-08-19T20:15:21.014Z,24.74
2023-08-19T20:17:52.485Z,24.69
2023-08-19T20:20:20.053Z,24.60
2023-08-19T20:22:50.116Z,24.61
2023-08-19T20:25:17.351Z,24.57
2023-08-19T20:27:44.546Z,24.50
2023-08-19T20:30:11.540Z,24.52
2023-08-19T20:32:39.615Z,24.42
2023-08-19T20:35:07.189Z,24.43
2023-08-19T20:37:34.031Z,24.36
2023-08-19T20:40:01.017Z,24.26
2023-08-19T20:42:27.682Z,24.30
2023-08-19T20:44:54.691Z,24.24
2023-08-19T20:47:21.352Z,24.16
2023-08-19T20:49:48.035Z,24.17
2023-08-19T20:52:14.703Z,24.13
2023-08-19T20:54:41.582Z,24.12
2023-08-19T20:57:08.417Z,24.09
2023-08-19T20:59:35.073Z,24.13
2023-08-19T21:02:01.944Z,24.19
2023-08-19T21:04:28.607Z,24.31
2023-08-19T21:06:55.336Z,24.36
2023-08-19T21:09:21.993Z,24.29
2023-08-19T21:11:48.691Z,24.25
2023-08-19T21:14:15.310Z,24.29
2023-08-19T21:16:41.946Z,24.33
2023-08-19T21:19:08.854Z,24.35
2023-08-19T21:21:35.522Z,24.38
2023-08-19T21:24:02.148Z,24.43
2023-08-19T21:26:28.818Z,24.43
2023-08-19T21:28:55.481Z,24.42
2023-08-19T21:31:22.207Z,24.43
2023-08-19T21:33:49.441Z,24.47
2023-08-19T21:36:16.146Z,24.42
2023-08-19T21:38:42.815Z,24.48
2023-08-19T21:41:11.456Z,24.51
2023-08-19T21:43:38.156Z,24.52
2023-08-19T21:46:04.963Z,24.51
2023-08-19T21:48:31.689Z,24.45
2023-08-19T21:50:58.557Z,24.47
2023-08-19T21:53:25.204Z,24.53
2023-08-19T21:55:51.940Z,24.50
2023-08-19T21:58:18.668Z,24.53
2023-08-19T22:00:45.366Z,24.47
2023-08-19T22:03:12.144Z,24.44
2023-08-19T22:05:49.010Z,24.45
2023-08-19T22:08:17.287Z,24.40
2023-08-19T22:10:45.423Z,24.42
2023-08-19T22:13:13.239Z,24.39
2023-08-19T22:15:40.118Z,24.39
2023-08-19T22:18:07.365Z,24.36
2023-08-19T22:23:04.673Z,24.39
2023-08-19T22:25:32.571Z,24.40
2023-08-19T22:27:59.572Z,24.33
2023-08-19T22:30:26.463Z,24.38
2023-08-19T22:32:53.320Z,24.40
2023-08-19T22:35:20.231Z,24.37
2023-08-19T22:37:47.040Z,24.32
2023-08-19T22:40:13.666Z,24.22
2023-08-19T22:42:40.355Z,24.29
2023-08-19T22:45:09.739Z,24.19
2023-08-19T22:47:37.082Z,24.19
2023-08-19T22:50:05.569Z,24.21
2023-08-19T22:52:32.346Z,24.27
2023-08-19T22:54:59.610Z,24.16
2023-08-19T22:57:26.601Z,24.16
2023-08-19T22:59:53.435Z,24.17
2023-08-19T23:02:20.084Z,24.12
2023-08-19T23:04:46.795Z,24.10
2023-08-19T23:07:13.475Z,24.19
2023-08-19T23:09:40.103Z,24.13
2023-08-19T23:12:09.444Z,24.15
2023-08-19T23:14:36.975Z,24.13
2023-08-19T23:17:03.800Z,24.06
2023-08-19T23:19:32.510Z,24.03
2023-08-19T23:21:59.213Z,24.12
2023-08-19T23:24:25.873Z,24.04
2023-08-19T23:26:52.588Z,23.97
2023-08-19T23:29:19.309Z,23.92
2023-08-19T23:31:45.976Z,23.95
2023-08-19T23:34:12.696Z,23.91
2023-08-19T23:36:39.603Z,23.96
2023-08-19T23:39:08.718Z,23.93
2023-08-19T23:41:36.399Z,23.87
2023-08-19T23:44:04.196Z,23.88
2023-08-19T23:46:30.783Z,23.79
2023-08-19T23:48:57.668Z,23.71
2023-08-19T23:51:25.476Z,23.64
2023-08-19T23:53:57.240Z,23.61
2023-08-19T23:56:24.234Z,23.54
2023-08-19T23:58:51.282Z,23.45
